Seward, Nebraska
Current Conditions -  °F | °C
As of 9:54 PM on Friday 19 Dec 2014 (Local Time) from KLNK Reporting Station
Overcast Overcast  
Wind Chill: 25°   Ceiling: 1300
Heat Index: 33°   Visibility: 7mi
Dew Point: 30°   Wind: 10mph
Humidity: 89%   Direction: 170°S
Pressure: 30.12"   Gusts: NA
Location:  40.91°N, 97.1°W
Report Text: KLNK 200354Z AUTO 17009KT 7SM OVC013 01/M01 A3012 RMK AO2 SLP212 T00061011
Loading
Personal Weather Stations






























Interactive Weather Map New forecast layout! Learn more

10-Day Weather Forecast

Advertisements
Track Severe Weather on mobile